Flight Track Log - Related Links

Times and Time Zones

All times are in EDT time to prevent confusion due to time zone crossing. See the N2352Y flight status page for this flight to view local times or setup timezone preferences in your user account.

Time Position Orientation Groundspeed Altitude Reporting Facility
EDT Latitude Longitude Course Direction KTS MPH feet Rate Location/Type
Mon 01:55:38 PM 33.1969 -89.0067 77° East 184 212 2,900  Level Memphis Center
Mon 01:56:38 PM 33.2217 -88.9767 45° Northeast 149 171 4,100 1,125 Climbing Memphis Center
Mon 01:57:14 PM 33.2317 -88.9542 62° Northeast 129 148 4,700 911 Climbing Memphis Center
Mon 01:57:57 PM 33.2461 -88.9239 60° Northeast 136 157 5,300 929 Climbing Memphis Center
Mon 01:58:38 PM 33.2561 -88.8964 66° East 131 151 6,000 891 Climbing Memphis Center
Mon 01:59:38 PM 33.2639 -88.8492 79° East 131 151 6,800 500 Climbing Memphis Center
Mon 02:00:00 PM 33.1989 -88.7245 80° East  Level FlightAware
Mon 02:00:38 PM 33.2717 -88.7944 80° East 141 162 7,000  Level Memphis Center
Mon 02:01:00 PM 33.2027 -88.6690 77° East  Level FlightAware
Mon 02:01:38 PM 33.2833 -88.7319 77° East 167 192 7,000  Level Memphis Center
Mon 02:02:38 PM 33.2931 -88.6697 79° East 181 208 7,000  Level Memphis Center
Mon 02:03:38 PM 33.3067 -88.6025 76° East 188 216 7,000  Level Memphis Center
Mon 02:04:38 PM 33.3183 -88.5400 77° East 193 222 7,000  Level Memphis Center
Mon 02:05:08 PM 33.3197 -88.5053 87° East 203 234 7,000 100 Level Memphis Center
Mon 02:05:38 PM 33.3278 -88.4728 73° East 198 228 7,100 67 Climbing Memphis Center
Mon 02:06:38 PM 33.3350 -88.4053 83° East 198 228 7,100  Level Memphis Center
Mon 02:07:38 PM 33.3444 -88.3406 80° East 198 228 7,100 -65 Level Memphis Center
Mon 02:08:10 PM 33.3458 -88.3031 87° East 200 230 7,000 -65 Descending Memphis Center
Mon 02:09:11 PM 33.3572 -88.2406 78° East 200 230 7,000  Level Memphis Center
Mon 02:10:12 PM 33.3728 -88.1708 75° East 201 231 7,000  Level Memphis Center
Mon 02:11:12 PM 33.3947 -88.1106 66° East 200 230 7,000  Level Memphis Center
Mon 02:12:19 PM 33.4081 -88.0406 77° East 199 229 7,000  Level Memphis Center
Mon 02:13:19 PM 33.4150 -87.9706 83° East 199 229 7,000  Level Memphis Center
Mon 02:14:20 PM 33.4117 -87.9058 94° East 201 231 7,000 30 Level Memphis Center
Mon 02:16:41 PM 33.4317 -87.7475 81° East 204 235 7,100 30 Climbing Atlanta Center
Mon 02:17:41 PM 33.4397 -87.6808 82° East 204 235 7,100  Level Atlanta Center
Mon 02:18:48 PM 33.4503 -87.6114 80° East 204 235 7,100 -98 Level Atlanta Center
Mon 02:19:43 PM 33.4583 -87.5519 81° East 202 232 6,900 -385 Descending Atlanta Center
Mon 02:20:37 PM 33.4664 -87.4878 81° East 211 243 6,400 -446 Descending Atlanta Center
Mon 02:21:44 PM 33.4767 -87.4133 81° East 212 244 6,000 -189 Descending Atlanta Center
Mon 02:22:44 PM 33.4889 -87.3442 78° East 196 226 6,000  Level Atlanta Center
Mon 02:23:45 PM 33.4992 -87.2797 79° East 188 216 6,000  Level Atlanta Center
Mon 02:25:00 PM 33.5078 -87.2103 75° East  Level Estimated
Mon 02:25:46 PM 33.5333 -87.1614 75° East 189 217 6,000  Level Atlanta Center
Mon 02:26:47 PM 33.5331 -87.0967 90° East 190 219 6,000  Level Atlanta Center
Mon 02:27:47 PM 33.5408 -87.0369 81° East 187 215 6,000 -99 Level Atlanta Center
Mon 02:28:48 PM 33.5525 -86.9778 77° East 185 213 5,800 -469 Descending Atlanta Center
Mon 02:29:55 PM 33.5731 -86.9111 70° East 194 223 5,000 -361 Descending Atlanta Center
Mon 02:31:01 PM 33.6056 -86.8522 56° Northeast 189 217 5,000 -50 Level Atlanta Center
Mon 02:31:56 PM 33.6317 -86.8031 57° Northeast 190 219 4,900 -443 Descending Atlanta Center
Mon 02:33:03 PM 33.6706 -86.7469 50° Northeast 198 228 4,100 -425 Descending Atlanta Center
Mon 02:34:03 PM 33.6944 -86.7003 58° Northeast 174 200 4,000 -198 Descending Atlanta Center
Mon 02:35:04 PM 33.6958 -86.6431 88° East 162 186 3,700 -545 Descending Atlanta Center
Mon 02:36:04 PM 33.6697 -86.5972 124° Southeast 177 204 2,900 -800 Descending Atlanta Center

Login

Don't have an account? Register now (free) for customized features, flight alerts, and more!